createdAt,value
2017-08-14T00:01:09.665Z,0
2017-08-14T00:02:23.169Z,0
2017-08-14T00:03:36.803Z,0
2017-08-14T00:04:50.291Z,0
2017-08-14T00:06:04.138Z,0
2017-08-14T00:07:17.629Z,0
2017-08-14T00:08:31.133Z,0
2017-08-14T00:09:44.852Z,0
2017-08-14T00:10:58.359Z,0
2017-08-14T00:12:12.139Z,0
2017-08-14T00:13:25.630Z,0
2017-08-14T00:14:39.127Z,0
2017-08-14T00:15:52.738Z,0
2017-08-14T00:17:06.422Z,0
2017-08-14T00:18:20.219Z,0
2017-08-14T00:19:33.715Z,0
2017-08-14T00:20:47.568Z,0
2017-08-14T00:22:01.421Z,0
2017-08-14T00:23:14.914Z,0
2017-08-14T00:24:28.914Z,0
2017-08-14T00:25:42.954Z,0
2017-08-14T00:26:56.559Z,0
2017-08-14T00:28:10.086Z,0
2017-08-14T00:29:23.603Z,0
2017-08-14T00:30:37.548Z,0
2017-08-14T00:31:51.336Z,0
2017-08-14T00:33:04.834Z,0
2017-08-14T00:34:18.684Z,0
2017-08-14T00:35:32.189Z,0
2017-08-14T00:36:46.278Z,0
2017-08-14T00:38:00.009Z,0
2017-08-14T00:39:13.510Z,0
2017-08-14T00:40:27.019Z,0
2017-08-14T00:41:40.546Z,0
2017-08-14T00:42:54.332Z,0
2017-08-14T00:44:08.162Z,0
2017-08-14T00:45:21.866Z,0
2017-08-14T00:46:35.372Z,0
2017-08-14T00:47:48.932Z,0
2017-08-14T00:49:02.732Z,0
2017-08-14T00:50:16.278Z,0
2017-08-14T00:51:30.096Z,0
2017-08-14T00:52:43.691Z,0
2017-08-14T00:53:57.956Z,0
2017-08-14T00:55:12.101Z,0
2017-08-14T00:56:25.615Z,0
2017-08-14T00:57:39.157Z,0
2017-08-14T00:58:53.542Z,0
2017-08-14T01:00:07.484Z,0
2017-08-14T01:01:21.267Z,0
2017-08-14T01:02:35.108Z,0
2017-08-14T01:03:48.681Z,0
2017-08-14T01:05:02.166Z,0
2017-08-14T01:06:15.669Z,0
2017-08-14T01:07:29.455Z,0
2017-08-14T01:08:43.003Z,0
2017-08-14T01:09:56.502Z,0
2017-08-14T01:11:10.010Z,0
2017-08-14T01:12:24.011Z,0
2017-08-14T01:13:37.820Z,0
2017-08-14T01:14:51.450Z,0
2017-08-14T01:16:05.253Z,0
2017-08-14T01:17:18.790Z,0
2017-08-14T01:18:32.790Z,0
2017-08-14T01:19:46.603Z,0
2017-08-14T01:21:00.094Z,0
2017-08-14T01:22:13.618Z,0
2017-08-14T01:23:27.132Z,0
2017-08-14T01:24:40.628Z,0
2017-08-14T01:25:54.439Z,0
2017-08-14T01:27:07.946Z,0
2017-08-14T01:28:21.837Z,0
2017-08-14T01:29:35.370Z,0
2017-08-14T01:30:49.192Z,0
2017-08-14T01:32:03.087Z,0
2017-08-14T01:33:16.945Z,0
2017-08-14T01:34:30.466Z,0
2017-08-14T01:35:44.187Z,0
2017-08-14T01:36:58.292Z,0
2017-08-14T01:38:12.195Z,0
2017-08-14T01:39:25.703Z,0
2017-08-14T01:40:39.227Z,0
2017-08-14T01:41:52.718Z,0
2017-08-14T01:43:06.222Z,0
2017-08-14T01:44:20.039Z,0
2017-08-14T01:45:33.530Z,0
2017-08-14T01:46:47.026Z,0
2017-08-14T01:48:00.540Z,0
2017-08-14T01:49:14.394Z,0
2017-08-14T01:50:28.539Z,0
2017-08-14T01:51:42.027Z,0
2017-08-14T01:52:55.537Z,0
2017-08-14T01:54:09.505Z,0
2017-08-14T01:55:23.003Z,0
2017-08-14T01:56:36.792Z,0
2017-08-14T01:57:50.369Z,0
2017-08-14T01:59:03.894Z,0
2017-08-14T02:00:17.428Z,0
2017-08-14T02:01:31.253Z,0
2017-08-14T02:02:45.023Z,0
2017-08-14T02:03:58.514Z,0
2017-08-14T02:05:12.022Z,0
2017-08-14T02:06:25.555Z,0
2017-08-14T02:07:39.053Z,0
2017-08-14T02:08:52.851Z,0
2017-08-14T02:10:06.379Z,0
2017-08-14T02:11:20.242Z,0
2017-08-14T02:12:33.931Z,0
2017-08-14T02:13:47.526Z,0
2017-08-14T02:15:01.699Z,0
2017-08-14T02:16:15.294Z,0
2017-08-14T02:17:28.843Z,0
2017-08-14T02:18:43.018Z,0
2017-08-14T02:19:56.672Z,0
2017-08-14T02:21:10.844Z,0
2017-08-14T02:22:24.343Z,0
2017-08-14T02:23:37.849Z,0
2017-08-14T02:24:51.450Z,0
2017-08-14T02:26:05.276Z,0
2017-08-14T02:27:19.159Z,0
2017-08-14T02:28:32.703Z,0
2017-08-14T02:29:46.255Z,0
2017-08-14T02:31:00.151Z,0
2017-08-14T02:32:13.751Z,0
2017-08-14T02:33:27.831Z,0
2017-08-14T02:34:41.366Z,0
2017-08-14T02:35:54.911Z,0
2017-08-14T02:37:08.459Z,0
2017-08-14T02:38:22.009Z,0
2017-08-14T02:39:35.930Z,0
2017-08-14T02:40:49.469Z,0
2017-08-14T02:42:03.307Z,0
2017-08-14T02:43:17.200Z,0
2017-08-14T02:44:31.020Z,0
2017-08-14T02:45:44.865Z,0
2017-08-14T02:46:58.701Z,0
2017-08-14T02:48:12.344Z,0
2017-08-14T02:49:25.883Z,0
2017-08-14T02:50:39.460Z,0
2017-08-14T02:51:53.596Z,0
2017-08-14T02:53:07.198Z,0
2017-08-14T02:54:21.054Z,0
2017-08-14T02:55:34.567Z,0
2017-08-14T02:56:48.419Z,0
2017-08-14T02:58:02.239Z,0
2017-08-14T02:59:15.794Z,0
2017-08-14T03:00:29.880Z,0
2017-08-14T03:01:43.392Z,0
2017-08-14T03:02:57.247Z,0
2017-08-14T03:04:11.104Z,0
2017-08-14T03:05:24.626Z,0
2017-08-14T03:06:38.159Z,0
2017-08-14T03:07:51.777Z,0
2017-08-14T03:09:05.388Z,0
2017-08-14T03:10:19.211Z,0
2017-08-14T03:11:32.744Z,0
2017-08-14T03:12:46.228Z,0
2017-08-14T03:13:59.810Z,0
2017-08-14T03:15:13.919Z,0
2017-08-14T03:16:27.723Z,0
2017-08-14T03:17:41.590Z,0
2017-08-14T03:18:55.472Z,0
2017-08-14T03:20:09.029Z,0
2017-08-14T03:21:22.892Z,0
2017-08-14T03:22:36.669Z,0
2017-08-14T03:23:50.975Z,0
2017-08-14T03:25:04.520Z,0
2017-08-14T03:26:18.042Z,0
2017-08-14T03:27:31.606Z,0
2017-08-14T03:28:45.374Z,0
2017-08-14T03:29:58.887Z,0
2017-08-14T03:31:12.431Z,0
2017-08-14T03:32:25.958Z,0
2017-08-14T03:33:39.583Z,0
2017-08-14T03:34:53.782Z,0
2017-08-14T03:36:07.300Z,0
2017-08-14T03:37:20.826Z,0
2017-08-14T03:38:34.622Z,0
2017-08-14T03:39:48.224Z,0
2017-08-14T03:41:02.060Z,0
2017-08-14T03:42:15.917Z,0
2017-08-14T03:43:29.811Z,0
2017-08-14T03:44:43.472Z,0
2017-08-14T03:45:56.975Z,0
2017-08-14T03:47:10.780Z,0
2017-08-14T03:48:24.275Z,0
2017-08-14T03:49:37.814Z,0
2017-08-14T03:50:51.359Z,0
2017-08-14T03:52:04.886Z,0
2017-08-14T03:53:19.055Z,0
2017-08-14T03:54:32.610Z,0
2017-08-14T03:55:46.143Z,0
2017-08-14T03:56:59.649Z,0
2017-08-14T03:58:13.534Z,0
2017-08-14T03:59:27.660Z,0
2017-08-14T04:00:41.186Z,0
2017-08-14T04:01:55.073Z,0
2017-08-14T04:03:08.905Z,0
2017-08-14T04:04:22.431Z,0
2017-08-14T04:05:36.252Z,0
2017-08-14T04:06:49.812Z,0
2017-08-14T04:08:03.386Z,0
2017-08-14T04:09:16.916Z,0
2017-08-14T04:10:30.406Z,0
2017-08-14T04:11:44.242Z,5
2017-08-14T04:12:57.796Z,5
2017-08-14T04:14:11.520Z,5
2017-08-14T04:15:25.006Z,5
2017-08-14T04:16:38.877Z,5
2017-08-14T04:17:52.998Z,5
2017-08-14T04:19:06.500Z,10
2017-08-14T04:20:20.392Z,10
2017-08-14T04:21:34.225Z,10
2017-08-14T04:22:47.733Z,10
2017-08-14T04:24:01.550Z,10
2017-08-14T04:25:15.047Z,15
2017-08-14T04:26:28.637Z,15
2017-08-14T04:27:42.271Z,15
2017-08-14T04:28:56.355Z,20
2017-08-14T04:30:10.739Z,20
2017-08-14T04:31:24.272Z,20
2017-08-14T04:32:37.890Z,25
2017-08-14T04:33:51.388Z,25
2017-08-14T04:35:05.224Z,25
2017-08-14T04:36:19.057Z,30
2017-08-14T04:37:32.905Z,30
2017-08-14T04:38:47.257Z,35
2017-08-14T04:40:01.110Z,35
2017-08-14T04:41:15.224Z,40
2017-08-14T04:42:29.076Z,40
2017-08-14T04:43:43.057Z,40
2017-08-14T04:44:56.577Z,45
2017-08-14T04:46:10.136Z,45
2017-08-14T04:47:23.657Z,45
2017-08-14T04:48:37.450Z,50
2017-08-14T04:49:50.978Z,50
2017-08-14T04:51:04.492Z,55
2017-08-14T04:52:18.041Z,55
2017-08-14T04:53:31.570Z,60
2017-08-14T04:54:46.379Z,70
2017-08-14T04:55:59.913Z,70
2017-08-14T04:57:13.748Z,65
2017-08-14T04:58:27.309Z,70
2017-08-14T04:59:41.020Z,75
2017-08-14T05:00:55.309Z,75
2017-08-14T05:02:08.831Z,75
2017-08-14T05:03:22.623Z,100
2017-08-14T05:04:36.133Z,90
2017-08-14T05:05:49.948Z,90
2017-08-14T05:07:04.429Z,95
2017-08-14T05:08:18.471Z,95
2017-08-14T05:09:32.122Z,90
2017-08-14T05:10:46.137Z,95
2017-08-14T05:11:59.657Z,95
2017-08-14T05:13:13.512Z,100
2017-08-14T05:14:27.022Z,100
2017-08-14T05:15:40.891Z,100
2017-08-14T05:16:54.426Z,100
2017-08-14T05:18:08.239Z,100
2017-08-14T05:19:22.056Z,100
2017-08-14T05:20:35.579Z,105
2017-08-14T05:21:49.108Z,110
2017-08-14T05:23:02.983Z,110
2017-08-14T05:24:16.559Z,110
2017-08-14T05:25:31.297Z,115
2017-08-14T05:26:44.823Z,115
2017-08-14T05:27:58.632Z,115
2017-08-14T05:29:12.700Z,115
2017-08-14T05:30:26.405Z,115
2017-08-14T05:31:40.585Z,125
2017-08-14T05:32:54.397Z,130
2017-08-14T05:34:08.210Z,135
2017-08-14T05:35:21.780Z,130
2017-08-14T05:36:35.609Z,130
2017-08-14T05:37:49.725Z,125
2017-08-14T05:39:03.244Z,130
2017-08-14T05:40:17.170Z,140
2017-08-14T05:41:30.688Z,140
2017-08-14T05:42:44.185Z,145
2017-08-14T05:43:57.999Z,155
2017-08-14T05:45:11.837Z,160
2017-08-14T05:46:25.979Z,165
2017-08-14T05:47:39.496Z,155
2017-08-14T05:48:53.011Z,155
2017-08-14T05:50:06.801Z,170
2017-08-14T05:51:20.321Z,155
2017-08-14T05:52:33.946Z,165
2017-08-14T05:53:47.777Z,155
2017-08-14T05:55:01.283Z,160
2017-08-14T05:56:15.126Z,165
2017-08-14T05:57:28.831Z,160
2017-08-14T05:58:42.359Z,155
2017-08-14T05:59:56.184Z,145
2017-08-14T06:01:09.688Z,140
2017-08-14T06:02:23.727Z,135
2017-08-14T06:03:37.274Z,140
2017-08-14T06:04:51.114Z,135
2017-08-14T06:06:04.690Z,135
2017-08-14T06:07:18.256Z,140
2017-08-14T06:08:32.075Z,150
2017-08-14T06:09:46.208Z,150
2017-08-14T06:10:59.720Z,145
2017-08-14T06:12:13.234Z,150
2017-08-14T06:13:27.068Z,165
2017-08-14T06:14:40.889Z,160
2017-08-14T06:15:54.548Z,160
2017-08-14T06:17:08.094Z,150
2017-08-14T06:18:22.714Z,140
2017-08-14T06:19:36.344Z,140
2017-08-14T06:20:50.437Z,140
2017-08-14T06:22:04.505Z,140
2017-08-14T06:23:18.404Z,135
2017-08-14T06:24:32.216Z,140
2017-08-14T06:25:45.725Z,145
2017-08-14T06:26:59.535Z,145
2017-08-14T06:28:13.469Z,155
2017-08-14T06:29:26.986Z,160
2017-08-14T06:30:40.499Z,160
2017-08-14T06:31:54.300Z,165
2017-08-14T06:33:08.147Z,170
2017-08-14T06:34:21.971Z,165
2017-08-14T06:35:35.593Z,160
2017-08-14T06:36:49.203Z,160
2017-08-14T06:38:02.769Z,160
2017-08-14T06:39:16.296Z,160
2017-08-14T06:40:30.464Z,165
2017-08-14T06:41:44.003Z,165
2017-08-14T06:42:57.652Z,180
2017-08-14T06:44:11.164Z,180
2017-08-14T06:45:25.296Z,170
2017-08-14T06:46:38.790Z,170
2017-08-14T06:47:52.286Z,175
2017-08-14T06:49:05.822Z,175
2017-08-14T06:50:19.914Z,170
2017-08-14T06:51:33.782Z,170
2017-08-14T06:52:47.294Z,175
2017-08-14T06:54:01.182Z,195
2017-08-14T06:55:14.687Z,220
2017-08-14T06:56:28.704Z,215
2017-08-14T06:57:42.499Z,210
2017-08-14T06:58:56.388Z,210
2017-08-14T07:00:09.994Z,205
2017-08-14T07:01:23.691Z,205
2017-08-14T07:02:37.534Z,225
2017-08-14T07:03:51.020Z,230
2017-08-14T07:05:04.589Z,230
2017-08-14T07:06:18.165Z,235
2017-08-14T07:07:31.684Z,215
2017-08-14T07:08:45.501Z,215
2017-08-14T07:09:59.306Z,205
2017-08-14T07:11:12.829Z,205
2017-08-14T07:12:27.393Z,200
2017-08-14T07:13:41.536Z,200
2017-08-14T07:14:55.259Z,200
2017-08-14T07:16:09.045Z,200
2017-08-14T07:17:22.598Z,215
2017-08-14T07:18:36.521Z,240
2017-08-14T07:19:50.122Z,245
2017-08-14T07:21:03.987Z,250
2017-08-14T07:22:17.781Z,255
2017-08-14T07:23:31.286Z,240
2017-08-14T07:24:45.327Z,215
2017-08-14T07:25:59.050Z,205
2017-08-14T07:27:12.594Z,210
2017-08-14T07:28:26.723Z,235
2017-08-14T07:29:40.244Z,260
2017-08-14T07:30:53.753Z,280
2017-08-14T07:32:07.278Z,295
2017-08-14T07:33:21.136Z,290
2017-08-14T07:34:34.913Z,295
2017-08-14T07:35:48.505Z,295
2017-08-14T07:37:02.025Z,290
2017-08-14T07:38:15.870Z,265
2017-08-14T07:39:29.525Z,250
2017-08-14T07:40:43.701Z,225
2017-08-14T07:41:57.580Z,210
2017-08-14T07:43:11.085Z,205
2017-08-14T07:44:24.608Z,220
2017-08-14T07:45:38.410Z,215
2017-08-14T07:46:52.841Z,205
2017-08-14T07:48:06.433Z,215
2017-08-14T07:49:19.937Z,215
2017-08-14T07:50:33.510Z,200
2017-08-14T07:51:47.752Z,175
2017-08-14T07:53:01.647Z,170
2017-08-14T07:54:16.978Z,155
2017-08-14T07:55:31.757Z,165
2017-08-14T07:56:45.302Z,160
2017-08-14T07:57:59.127Z,170
2017-08-14T07:59:12.917Z,175
2017-08-14T08:00:26.465Z,175
2017-08-14T08:01:40.631Z,170
2017-08-14T08:02:55.204Z,175
2017-08-14T08:04:08.826Z,185
2017-08-14T08:05:22.621Z,195
2017-08-14T08:06:36.241Z,210
2017-08-14T08:07:49.767Z,220
2017-08-14T08:09:03.295Z,225
2017-08-14T08:10:17.116Z,235
2017-08-14T08:11:31.461Z,230
2017-08-14T08:12:45.011Z,230
2017-08-14T08:13:58.861Z,235
2017-08-14T08:15:13.772Z,235
2017-08-14T08:16:27.276Z,230
2017-08-14T08:17:41.066Z,215
2017-08-14T08:18:54.901Z,195
2017-08-14T08:20:08.426Z,190
2017-08-14T08:21:21.941Z,205
2017-08-14T08:22:35.513Z,220
2017-08-14T08:23:49.340Z,220
2017-08-14T08:25:02.854Z,205
2017-08-14T08:26:16.391Z,195
2017-08-14T08:27:30.112Z,175
2017-08-14T08:28:43.635Z,155
2017-08-14T08:29:57.494Z,155
2017-08-14T08:31:11.012Z,155
2017-08-14T08:32:24.848Z,150
2017-08-14T08:33:38.481Z,155
2017-08-14T08:34:52.014Z,165
2017-08-14T08:36:05.548Z,160
2017-08-14T08:37:19.097Z,155
2017-08-14T08:38:32.983Z,175
2017-08-14T08:39:46.514Z,220
2017-08-14T08:41:00.374Z,225
2017-08-14T08:42:14.261Z,240
2017-08-14T08:43:27.789Z,250
2017-08-14T08:44:41.494Z,235
2017-08-14T08:45:55.019Z,225
2017-08-14T08:47:08.545Z,235
2017-08-14T08:48:22.379Z,235
2017-08-14T08:49:35.918Z,245
2017-08-14T08:50:49.404Z,240
2017-08-14T08:52:02.940Z,245
2017-08-14T08:53:16.790Z,245
2017-08-14T08:54:31.278Z,245
2017-08-14T08:55:45.440Z,250
2017-08-14T08:56:58.951Z,255
2017-08-14T08:58:12.466Z,260
2017-08-14T08:59:26.276Z,260
2017-08-14T09:00:40.067Z,260
2017-08-14T09:01:53.937Z,260
2017-08-14T09:03:07.674Z,260
2017-08-14T09:04:21.206Z,250
2017-08-14T09:05:35.387Z,240
2017-08-14T09:06:49.566Z,240
2017-08-14T09:08:03.431Z,245
2017-08-14T09:09:17.240Z,230
2017-08-14T09:10:30.811Z,255
2017-08-14T09:11:44.351Z,270
2017-08-14T09:12:57.876Z,270
2017-08-14T09:14:11.438Z,265
2017-08-14T09:15:25.628Z,280
2017-08-14T09:16:39.176Z,270
2017-08-14T09:17:52.729Z,235
2017-08-14T09:19:06.587Z,200
2017-08-14T09:20:20.206Z,180
2017-08-14T09:21:33.749Z,180
2017-08-14T09:22:47.923Z,170
2017-08-14T09:24:01.768Z,160
2017-08-14T09:25:15.952Z,155
2017-08-14T09:26:29.536Z,150
2017-08-14T09:27:43.070Z,155
2017-08-14T09:28:56.614Z,155
2017-08-14T09:30:10.192Z,160
2017-08-14T09:31:23.997Z,170
2017-08-14T09:32:37.621Z,175
2017-08-14T09:33:51.139Z,175
2017-08-14T09:35:04.977Z,165
2017-08-14T09:36:18.510Z,150
2017-08-14T09:37:32.007Z,145
2017-08-14T09:38:46.278Z,150
2017-08-14T09:39:59.810Z,155
2017-08-14T09:41:13.336Z,175
2017-08-14T09:42:27.649Z,195
2017-08-14T09:43:41.779Z,200
2017-08-14T09:44:55.814Z,210
2017-08-14T09:46:09.611Z,250
2017-08-14T09:47:23.155Z,260
2017-08-14T09:48:36.661Z,275
2017-08-14T09:49:50.500Z,295
2017-08-14T09:51:04.044Z,315
2017-08-14T09:52:17.551Z,325
2017-08-14T09:53:31.314Z,335
2017-08-14T09:54:45.489Z,335
2017-08-14T09:55:59.323Z,325
2017-08-14T09:57:13.712Z,320
2017-08-14T09:58:27.261Z,315
2017-08-14T09:59:40.929Z,305
2017-08-14T10:00:54.768Z,295
2017-08-14T10:02:08.646Z,295
2017-08-14T10:03:22.186Z,295
2017-08-14T10:04:35.715Z,290
2017-08-14T10:05:49.263Z,285
2017-08-14T10:07:02.823Z,280
2017-08-14T10:08:17.052Z,280
2017-08-14T10:09:30.920Z,275
2017-08-14T10:10:44.755Z,270
2017-08-14T10:11:58.271Z,270
2017-08-14T10:13:11.798Z,260
2017-08-14T10:14:26.284Z,245
2017-08-14T10:15:39.831Z,240
2017-08-14T10:16:53.691Z,235
2017-08-14T10:18:07.192Z,235
2017-08-14T10:19:21.009Z,240
2017-08-14T10:20:35.443Z,250
2017-08-14T10:21:48.981Z,265
2017-08-14T10:23:02.865Z,280
2017-08-14T10:24:16.417Z,290
2017-08-14T10:25:30.018Z,305
2017-08-14T10:26:44.065Z,310
2017-08-14T10:27:57.670Z,310
2017-08-14T10:29:11.214Z,310
2017-08-14T10:30:24.753Z,310
2017-08-14T10:31:38.585Z,315
2017-08-14T10:32:52.389Z,315
2017-08-14T10:34:05.932Z,320
2017-08-14T10:35:19.479Z,320
2017-08-14T10:36:32.989Z,320
2017-08-14T10:37:46.586Z,305
2017-08-14T10:39:00.726Z,285
2017-08-14T10:40:14.261Z,270
2017-08-14T10:41:27.761Z,270
2017-08-14T10:42:41.323Z,260
2017-08-14T10:43:54.980Z,240
2017-08-14T10:45:08.797Z,225
2017-08-14T10:46:22.334Z,205
2017-08-14T10:47:35.900Z,195
2017-08-14T10:48:49.468Z,185
2017-08-14T10:50:03.554Z,180
2017-08-14T10:51:17.410Z,175
2017-08-14T10:52:31.002Z,175
2017-08-14T10:53:44.565Z,175
2017-08-14T10:54:58.137Z,175
2017-08-14T10:56:11.649Z,180
2017-08-14T10:57:25.472Z,185
2017-08-14T10:58:38.989Z,180
2017-08-14T10:59:52.809Z,185
2017-08-14T11:01:06.397Z,180
2017-08-14T11:02:19.939Z,180
2017-08-14T11:03:33.755Z,180
2017-08-14T11:04:47.702Z,180
2017-08-14T11:06:01.234Z,180
2017-08-14T11:07:14.781Z,180
2017-08-14T11:08:28.649Z,180
2017-08-14T11:09:42.558Z,180
2017-08-14T11:10:56.247Z,180
2017-08-14T11:12:09.818Z,180
2017-08-14T11:13:23.333Z,180
2017-08-14T11:14:36.879Z,180
2017-08-14T11:15:50.712Z,175
2017-08-14T11:17:04.270Z,175
2017-08-14T11:18:17.785Z,170
2017-08-14T11:19:32.037Z,175
2017-08-14T11:20:45.900Z,170
2017-08-14T11:22:00.343Z,175
2017-08-14T11:23:14.190Z,180
2017-08-14T11:24:27.695Z,170
2017-08-14T11:25:41.886Z,165
2017-08-14T11:26:55.411Z,150
2017-08-14T11:28:09.231Z,140
2017-08-14T11:29:22.777Z,140
2017-08-14T11:30:36.376Z,140
2017-08-14T11:31:49.925Z,140
2017-08-14T11:33:03.644Z,140
2017-08-14T11:34:17.682Z,150
2017-08-14T11:35:31.204Z,150
2017-08-14T11:36:44.756Z,165
2017-08-14T11:37:58.298Z,180
2017-08-14T11:39:12.131Z,200
2017-08-14T11:40:26.058Z,210
2017-08-14T11:41:39.892Z,210
2017-08-14T11:42:53.468Z,215
2017-08-14T11:44:07.055Z,215
2017-08-14T11:45:20.616Z,200
2017-08-14T11:46:34.370Z,210
2017-08-14T11:47:48.320Z,215
2017-08-14T11:49:01.865Z,210
2017-08-14T11:50:15.413Z,235
2017-08-14T11:51:29.578Z,245
2017-08-14T11:52:43.085Z,255
2017-08-14T11:53:56.624Z,245
2017-08-14T11:55:10.207Z,225
2017-08-14T11:56:23.808Z,250
2017-08-14T11:57:37.983Z,240
2017-08-14T11:58:51.787Z,235
2017-08-14T12:00:05.634Z,235
2017-08-14T12:01:19.659Z,225
2017-08-14T12:02:33.236Z,235
2017-08-14T12:03:47.281Z,235
2017-08-14T12:05:01.146Z,230
2017-08-14T12:06:15.019Z,235
2017-08-14T12:07:28.693Z,225
2017-08-14T12:08:42.233Z,220
2017-08-14T12:09:56.129Z,215
2017-08-14T12:11:09.941Z,215
2017-08-14T12:12:23.499Z,240
2017-08-14T12:13:37.350Z,250
2017-08-14T12:14:50.887Z,245
2017-08-14T12:16:04.504Z,230
2017-08-14T12:17:18.317Z,220
2017-08-14T12:18:31.876Z,215
2017-08-14T12:19:45.415Z,210
2017-08-14T12:20:59.233Z,205
2017-08-14T12:22:13.234Z,215
2017-08-14T12:23:27.041Z,210
2017-08-14T12:24:40.571Z,205
2017-08-14T12:25:54.084Z,220
2017-08-14T12:27:07.966Z,235
2017-08-14T12:28:21.592Z,230
2017-08-14T12:29:35.413Z,230
2017-08-14T12:30:48.924Z,215
2017-08-14T12:32:02.482Z,210
2017-08-14T12:33:16.141Z,210
2017-08-14T12:34:29.701Z,215
2017-08-14T12:35:43.523Z,220
2017-08-14T12:36:57.365Z,230
2017-08-14T12:38:11.280Z,240
2017-08-14T12:39:24.826Z,250
2017-08-14T12:40:38.670Z,260
2017-08-14T12:41:52.495Z,275
2017-08-14T12:43:06.037Z,280
2017-08-14T12:44:19.603Z,265
2017-08-14T12:45:33.118Z,240
2017-08-14T12:46:46.972Z,240
2017-08-14T12:48:00.782Z,235
2017-08-14T12:49:14.524Z,225
2017-08-14T12:50:28.074Z,215
2017-08-14T12:51:42.012Z,205
2017-08-14T12:52:55.524Z,195
2017-08-14T12:54:09.665Z,190
2017-08-14T12:55:23.453Z,180
2017-08-14T12:56:37.352Z,170
2017-08-14T12:57:50.909Z,170
2017-08-14T12:59:05.043Z,165
2017-08-14T13:00:18.856Z,165
2017-08-14T13:01:32.426Z,160
2017-08-14T13:02:46.668Z,160
2017-08-14T13:04:00.725Z,160
2017-08-14T13:05:14.253Z,160
2017-08-14T13:06:28.298Z,165
2017-08-14T13:07:41.903Z,165
2017-08-14T13:08:55.764Z,155
2017-08-14T13:10:09.983Z,150
2017-08-14T13:11:23.525Z,145
2017-08-14T13:12:37.329Z,145
2017-08-14T13:13:50.855Z,150
2017-08-14T13:15:04.740Z,150
2017-08-14T13:16:18.584Z,155
2017-08-14T13:17:32.108Z,160
2017-08-14T13:18:46.247Z,165
2017-08-14T13:19:59.838Z,180
2017-08-14T13:21:13.667Z,180
2017-08-14T13:22:27.233Z,190
2017-08-14T13:23:41.305Z,200
2017-08-14T13:24:55.158Z,205
2017-08-14T13:26:08.699Z,200
2017-08-14T13:27:22.255Z,190
2017-08-14T13:28:36.119Z,185
2017-08-14T13:29:49.641Z,185
2017-08-14T13:31:03.828Z,185
2017-08-14T13:32:17.356Z,170
2017-08-14T13:33:30.961Z,175
2017-08-14T13:34:44.664Z,190
2017-08-14T13:35:58.864Z,215
2017-08-14T13:37:12.707Z,230
2017-08-14T13:38:26.547Z,220
2017-08-14T13:39:40.095Z,235
2017-08-14T13:40:53.639Z,225
2017-08-14T13:42:07.179Z,200
2017-08-14T13:43:20.955Z,205
2017-08-14T13:44:34.834Z,190
2017-08-14T13:45:48.702Z,190
2017-08-14T13:47:02.549Z,170
2017-08-14T13:48:16.070Z,165
2017-08-14T13:49:30.726Z,175
2017-08-14T13:50:44.575Z,195
2017-08-14T13:51:58.152Z,200
2017-08-14T13:53:11.687Z,170
2017-08-14T13:54:25.870Z,155
2017-08-14T13:55:39.759Z,150
2017-08-14T13:56:53.652Z,145
2017-08-14T13:58:07.198Z,145
2017-08-14T13:59:21.103Z,145
2017-08-14T14:00:34.640Z,155
2017-08-14T14:01:48.473Z,165
2017-08-14T14:03:01.991Z,165
2017-08-14T14:04:15.652Z,160
2017-08-14T14:05:29.500Z,155
2017-08-14T14:06:43.006Z,155
2017-08-14T14:07:56.843Z,170
2017-08-14T14:09:10.370Z,175
2017-08-14T14:10:24.368Z,185
2017-08-14T14:11:38.231Z,180
2017-08-14T14:12:52.333Z,190
2017-08-14T14:14:06.128Z,195
2017-08-14T14:15:19.868Z,185
2017-08-14T14:16:33.498Z,180
2017-08-14T14:17:47.692Z,165
2017-08-14T14:19:01.232Z,160
2017-08-14T14:20:15.682Z,145
2017-08-14T14:21:29.421Z,140
2017-08-14T14:22:42.952Z,150
2017-08-14T14:23:56.452Z,150
2017-08-14T14:25:10.327Z,150
2017-08-14T14:26:24.487Z,150
2017-08-14T14:27:38.028Z,150
2017-08-14T14:28:51.884Z,145
2017-08-14T14:30:05.485Z,145
2017-08-14T14:31:18.993Z,150
2017-08-14T14:32:32.826Z,150
2017-08-14T14:33:59.101Z,150
2017-08-14T14:35:12.726Z,155
2017-08-14T14:36:26.259Z,155
2017-08-14T14:37:40.225Z,165
2017-08-14T14:38:54.088Z,175
2017-08-14T14:40:07.911Z,175
2017-08-14T14:41:21.924Z,180
2017-08-14T14:42:35.492Z,180
2017-08-14T14:43:49.699Z,185
2017-08-14T14:45:03.557Z,195
2017-08-14T14:46:17.801Z,200
2017-08-14T14:47:31.633Z,185
2017-08-14T14:48:45.482Z,165
2017-08-14T14:49:59.055Z,155
2017-08-14T14:51:12.924Z,145
2017-08-14T14:52:26.502Z,140
2017-08-14T14:53:40.057Z,135
2017-08-14T14:54:53.908Z,130
2017-08-14T14:56:08.162Z,130
2017-08-14T14:57:21.973Z,125
2017-08-14T14:58:35.596Z,120
2017-08-14T14:59:49.133Z,120
2017-08-14T15:01:02.894Z,120
2017-08-14T15:02:16.733Z,120
2017-08-14T15:03:30.555Z,115
2017-08-14T15:04:45.384Z,115
2017-08-14T15:05:59.281Z,115
2017-08-14T15:07:12.808Z,115
2017-08-14T15:08:26.369Z,115
2017-08-14T15:09:40.270Z,115
2017-08-14T15:10:53.835Z,110
2017-08-14T15:12:22.199Z,110
2017-08-14T15:13:35.695Z,115
2017-08-14T15:14:49.522Z,115
2017-08-14T15:16:03.414Z,115
2017-08-14T15:17:17.026Z,115
2017-08-14T15:18:30.627Z,115
2017-08-14T15:19:44.690Z,115
2017-08-14T15:20:58.276Z,115
2017-08-14T15:22:11.808Z,115
2017-08-14T15:23:25.342Z,115
2017-08-14T15:24:38.895Z,115
2017-08-14T15:25:52.759Z,120
2017-08-14T15:27:06.865Z,120
2017-08-14T15:28:20.408Z,115
2017-08-14T15:29:33.953Z,115
2017-08-14T15:30:47.534Z,110
2017-08-14T15:32:01.755Z,110
2017-08-14T15:33:15.270Z,110
2017-08-14T15:34:28.842Z,110
2017-08-14T15:35:42.719Z,105
2017-08-14T15:36:56.319Z,105
2017-08-14T15:38:09.857Z,110
2017-08-14T15:39:23.686Z,110
2017-08-14T15:40:37.541Z,110
2017-08-14T15:41:51.102Z,110
2017-08-14T15:43:04.633Z,110
2017-08-14T15:44:18.163Z,115
2017-08-14T15:45:32.591Z,125
2017-08-14T15:46:46.506Z,145
2017-08-14T15:48:00.017Z,155
2017-08-14T15:49:13.883Z,160
2017-08-14T15:50:27.737Z,160
2017-08-14T15:51:41.912Z,170
2017-08-14T15:52:55.583Z,165
2017-08-14T15:54:09.127Z,165
2017-08-14T15:55:23.014Z,160
2017-08-14T15:56:36.685Z,155
2017-08-14T15:57:50.218Z,150
2017-08-14T15:59:03.870Z,145
2017-08-14T16:00:17.445Z,125
2017-08-14T16:01:31.350Z,120
2017-08-14T16:02:44.928Z,115
2017-08-14T16:03:59.086Z,125
2017-08-14T16:05:12.933Z,125
2017-08-14T16:06:26.460Z,125
2017-08-14T16:07:40.516Z,120
2017-08-14T16:08:54.093Z,115
2017-08-14T16:10:07.684Z,110
2017-08-14T16:11:21.283Z,100
2017-08-14T16:12:35.214Z,100
2017-08-14T16:13:49.030Z,100
2017-08-14T16:15:03.546Z,100
2017-08-14T16:16:17.072Z,100
2017-08-14T16:17:31.089Z,100
2017-08-14T16:18:44.737Z,100
2017-08-14T16:19:58.468Z,100
2017-08-14T16:21:12.060Z,100
2017-08-14T16:22:25.646Z,95
2017-08-14T16:23:39.891Z,95
2017-08-14T16:24:53.457Z,95
2017-08-14T16:26:07.494Z,95
2017-08-14T16:27:21.398Z,95
2017-08-14T16:28:35.354Z,95
2017-08-14T16:29:48.982Z,90
2017-08-14T16:31:02.962Z,90
2017-08-14T16:32:16.690Z,95
2017-08-14T16:33:30.837Z,90
2017-08-14T16:34:44.703Z,85
2017-08-14T16:35:59.125Z,80
2017-08-14T16:37:13.377Z,85
2017-08-14T16:38:26.964Z,85
2017-08-14T16:39:40.579Z,80
2017-08-14T16:40:54.120Z,80
2017-08-14T16:42:08.090Z,80
2017-08-14T16:43:21.984Z,75
2017-08-14T16:44:35.535Z,70
2017-08-14T16:45:49.147Z,70
2017-08-14T16:47:38.442Z,70
2017-08-14T16:49:51.326Z,65
2017-08-14T16:51:05.962Z,70
2017-08-14T16:52:19.869Z,65
2017-08-14T16:53:33.797Z,65
2017-08-14T16:54:47.680Z,70
2017-08-14T16:56:01.808Z,65
2017-08-14T16:57:15.393Z,60
2017-08-14T16:58:28.954Z,65
2017-08-14T16:59:42.758Z,65
2017-08-14T17:00:56.364Z,60
2017-08-14T17:02:10.211Z,60
2017-08-14T17:03:23.761Z,60
2017-08-14T17:04:37.301Z,65
2017-08-14T17:05:50.890Z,65
2017-08-14T17:07:04.444Z,65
2017-08-14T17:08:18.490Z,70
2017-08-14T17:09:32.024Z,70
2017-08-14T17:10:45.542Z,70
2017-08-14T17:11:59.430Z,70
2017-08-14T17:13:14.657Z,70
2017-08-14T17:14:28.763Z,65
2017-08-14T17:15:42.393Z,65
2017-08-14T17:16:55.942Z,65
2017-08-14T17:18:10.006Z,60
2017-08-14T17:19:24.035Z,65